createdAt,value
2022-11-05T00:00:49.951Z,8.20
2022-11-05T00:03:35.324Z,8.20
2022-11-05T00:06:20.630Z,8.20
2022-11-05T00:09:05.926Z,8.10
2022-11-05T00:11:51.281Z,8.10
2022-11-05T00:14:37.234Z,8.10
2022-11-05T00:17:04.228Z,8.10
2022-11-05T00:19:31.208Z,8.10
2022-11-05T00:22:16.674Z,8.10
2022-11-05T00:25:02.187Z,8.00
2022-11-05T00:27:29.242Z,8.00
2022-11-05T00:29:56.230Z,8.00
2022-11-05T00:32:23.395Z,8.00
2022-11-05T00:34:50.388Z,8.00
2022-11-05T00:37:17.402Z,8.00
2022-11-05T00:39:44.403Z,7.90
2022-11-05T00:42:29.937Z,8.00
2022-11-05T00:45:00.872Z,8.00
2022-11-05T00:47:46.933Z,8.00
2022-11-05T00:50:14.583Z,8.10
2022-11-05T00:52:56.481Z,8.00
2022-11-05T00:55:28.394Z,7.90
2022-11-05T00:57:57.464Z,8.00
2022-11-05T01:00:27.666Z,7.90
2022-11-05T01:02:58.828Z,8.00
2022-11-05T01:05:26.005Z,8.00
2022-11-05T01:07:53.894Z,7.90
2022-11-05T01:10:22.833Z,8.00
2022-11-05T01:12:50.006Z,7.90
2022-11-05T01:15:19.399Z,7.80
2022-11-05T01:17:46.540Z,7.90
2022-11-05T01:20:14.450Z,7.90
2022-11-05T01:22:41.473Z,7.90
2022-11-05T01:25:09.930Z,7.90
2022-11-05T01:27:38.203Z,7.90
2022-11-05T01:30:07.827Z,7.90
2022-11-05T01:32:36.431Z,7.90
2022-11-05T01:35:06.508Z,7.90
2022-11-05T01:37:35.348Z,8.00
2022-11-05T01:40:02.651Z,8.00
2022-11-05T01:42:33.387Z,7.90
2022-11-05T01:45:16.128Z,8.00
2022-11-05T01:48:11.144Z,8.00
2022-11-05T01:50:56.492Z,7.90
2022-11-05T01:53:46.935Z,8.00
2022-11-05T01:56:40.338Z,8.00
2022-11-05T01:59:15.143Z,7.90
2022-11-05T02:01:42.357Z,7.90
2022-11-05T02:04:18.165Z,7.90
2022-11-05T02:06:46.701Z,7.90
2022-11-05T02:09:23.774Z,7.90
2022-11-05T02:11:51.837Z,7.90
2022-11-05T02:14:19.119Z,7.90
2022-11-05T02:16:56.686Z,7.90
2022-11-05T02:20:13.661Z,7.90
2022-11-05T02:23:28.728Z,7.90
2022-11-05T02:26:28.225Z,7.90
2022-11-05T02:29:42.211Z,8.00
2022-11-05T02:32:52.767Z,7.90
2022-11-05T02:36:05.407Z,7.90
2022-11-05T02:38:47.921Z,7.90
2022-11-05T02:42:05.398Z,7.90
2022-11-05T02:44:47.254Z,7.90
2022-11-05T02:47:30.776Z,7.90
2022-11-05T02:50:39.227Z,7.90
2022-11-05T02:53:21.709Z,7.90
2022-11-05T02:56:06.810Z,7.90
2022-11-05T02:58:35.814Z,7.80
2022-11-05T03:01:06.894Z,7.80
2022-11-05T03:03:58.142Z,7.80
2022-11-05T03:07:02.218Z,7.90
2022-11-05T03:09:43.206Z,7.90
2022-11-05T03:12:28.780Z,7.90
2022-11-05T03:15:25.216Z,7.90
2022-11-05T03:18:31.306Z,7.90
2022-11-05T03:21:20.523Z,7.90
2022-11-05T03:24:17.187Z,7.90
2022-11-05T03:26:56.452Z,7.90
2022-11-05T03:29:32.974Z,7.90
2022-11-05T03:32:04.452Z,8.00
2022-11-05T03:34:42.747Z,7.90
2022-11-05T03:37:11.714Z,7.90
2022-11-05T03:39:47.741Z,7.90
2022-11-05T03:42:20.322Z,7.70
2022-11-05T03:44:55.505Z,7.80
2022-11-05T03:47:38.095Z,7.80
2022-11-05T03:50:33.741Z,7.70
2022-11-05T03:53:26.100Z,7.70
2022-11-05T03:56:01.331Z,7.70
2022-11-05T03:58:30.926Z,7.70
2022-11-05T04:01:02.483Z,7.60
2022-11-05T04:03:36.349Z,7.60
2022-11-05T04:06:25.590Z,7.60
2022-11-05T04:09:11.009Z,7.50
2022-11-05T04:11:57.011Z,7.50
2022-11-05T04:14:24.160Z,7.50
2022-11-05T04:17:11.968Z,7.50
2022-11-05T04:20:03.055Z,7.50
2022-11-05T04:22:54.167Z,7.40
2022-11-05T04:25:23.018Z,7.40
2022-11-05T04:27:50.080Z,7.40
2022-11-05T04:30:19.418Z,7.40
2022-11-05T04:33:08.798Z,7.30
2022-11-05T04:35:45.834Z,7.30
2022-11-05T04:38:16.522Z,7.30
2022-11-05T04:40:45.171Z,7.30
2022-11-05T04:43:19.570Z,7.20
2022-11-05T04:45:46.875Z,7.10
2022-11-05T04:48:13.899Z,7.10
2022-11-05T04:50:40.873Z,7.00
2022-11-05T04:53:08.043Z,7.00
2022-11-05T04:55:35.232Z,6.90
2022-11-05T04:58:02.290Z,7.00
2022-11-05T05:00:29.389Z,7.00
2022-11-05T05:02:56.383Z,7.10
2022-11-05T05:05:23.409Z,7.00
2022-11-05T05:07:50.416Z,7.00
2022-11-05T05:10:17.802Z,7.00
2022-11-05T05:12:44.772Z,7.00
2022-11-05T05:15:11.819Z,7.20
2022-11-05T05:17:38.859Z,7.10
2022-11-05T05:20:24.966Z,7.00
2022-11-05T05:22:55.512Z,7.10
2022-11-05T05:25:23.164Z,7.20
2022-11-05T05:27:50.256Z,7.20
2022-11-05T05:30:18.115Z,7.30
2022-11-05T05:32:45.826Z,7.20
2022-11-05T05:35:12.912Z,7.20
2022-11-05T05:37:39.935Z,7.30
2022-11-05T05:40:07.943Z,7.40
2022-11-05T05:42:40.240Z,7.30
2022-11-05T05:45:10.885Z,7.30
2022-11-05T05:47:37.928Z,7.30
2022-11-05T05:50:05.837Z,7.30
2022-11-05T05:52:32.901Z,7.30
2022-11-05T05:54:59.894Z,7.30
2022-11-05T05:57:26.898Z,7.30
2022-11-05T05:59:53.881Z,7.30
2022-11-05T06:02:21.007Z,7.10
2022-11-05T06:04:48.098Z,7.10
2022-11-05T06:07:15.111Z,7.20
2022-11-05T06:09:42.111Z,7.20
2022-11-05T06:12:09.142Z,7.20
2022-11-05T06:14:36.197Z,7.20
2022-11-05T06:17:03.213Z,7.20
2022-11-05T06:19:30.210Z,7.20
2022-11-05T06:21:57.191Z,7.20
2022-11-05T06:24:24.317Z,7.20
2022-11-05T06:26:51.380Z,7.20
2022-11-05T06:29:18.384Z,7.20
2022-11-05T06:31:45.382Z,7.10
2022-11-05T06:34:12.374Z,7.20
2022-11-05T06:36:40.291Z,7.20
2022-11-05T06:39:11.712Z,7.20
2022-11-05T06:42:03.962Z,7.20
2022-11-05T06:44:25.923Z,7.40
2022-11-05T06:46:52.924Z,7.30
2022-11-05T06:49:19.984Z,7.30
2022-11-05T06:51:46.968Z,7.30
2022-11-05T06:54:14.137Z,7.30
2022-11-05T06:56:41.264Z,7.50
2022-11-05T06:59:08.660Z,7.50
2022-11-05T07:01:37.397Z,7.40
2022-11-05T07:04:04.762Z,7.40
2022-11-05T07:06:36.784Z,7.40
2022-11-05T07:09:04.558Z,7.50
2022-11-05T07:11:31.654Z,7.30
2022-11-05T07:13:58.676Z,7.50
2022-11-05T07:16:25.685Z,7.50
2022-11-05T07:18:53.005Z,7.50
2022-11-05T07:21:19.991Z,7.50
2022-11-05T07:23:47.782Z,7.50
2022-11-05T07:26:15.044Z,7.50
2022-11-05T07:28:42.201Z,7.50
2022-11-05T07:31:09.169Z,7.60
2022-11-05T07:33:36.809Z,7.70
2022-11-05T07:36:04.420Z,7.60
2022-11-05T07:38:31.500Z,7.50
2022-11-05T07:41:01.554Z,7.60
2022-11-05T07:43:28.693Z,7.50
2022-11-05T07:45:55.709Z,7.60
2022-11-05T07:48:22.747Z,7.70
2022-11-05T07:50:53.152Z,7.60
2022-11-05T07:53:21.239Z,7.70
2022-11-05T07:55:48.477Z,7.70
2022-11-05T07:58:15.498Z,7.70
2022-11-05T08:00:42.711Z,7.80
2022-11-05T08:03:17.595Z,7.80
2022-11-05T08:05:47.878Z,7.90
2022-11-05T08:08:19.113Z,7.90
2022-11-05T08:10:47.072Z,8.00
2022-11-05T08:13:15.674Z,8.00
2022-11-05T08:15:43.895Z,8.00
2022-11-05T08:18:14.709Z,8.00
2022-11-05T08:20:44.117Z,8.10
2022-11-05T08:23:11.555Z,8.10
2022-11-05T08:25:39.924Z,8.10
2022-11-05T08:28:11.608Z,8.00
2022-11-05T08:30:39.094Z,8.20
2022-11-05T08:33:12.834Z,8.00
2022-11-05T08:35:41.087Z,8.20
2022-11-05T08:38:11.234Z,8.20
2022-11-05T08:40:38.373Z,8.20
2022-11-05T08:43:07.517Z,8.30
2022-11-05T08:45:38.517Z,8.30
2022-11-05T08:48:10.177Z,8.40
2022-11-05T08:50:39.285Z,8.40
2022-11-05T08:53:08.017Z,8.50
2022-11-05T08:55:36.163Z,8.40
2022-11-05T08:58:12.580Z,8.50
2022-11-05T09:00:40.170Z,8.60
2022-11-05T09:03:10.519Z,8.60
2022-11-05T09:05:40.976Z,8.60
2022-11-05T09:08:17.605Z,8.80
2022-11-05T09:10:47.071Z,8.70
2022-11-05T09:13:18.750Z,8.70
2022-11-05T09:15:48.873Z,8.70
2022-11-05T09:18:17.604Z,8.70
2022-11-05T09:20:45.095Z,8.70
2022-11-05T09:23:14.879Z,8.80
2022-11-05T09:25:42.278Z,8.80
2022-11-05T09:28:19.199Z,8.80
2022-11-05T09:30:50.385Z,8.80
2022-11-05T09:33:21.282Z,8.80
2022-11-05T09:35:48.497Z,8.80
2022-11-05T09:38:15.938Z,8.90
2022-11-05T09:41:25.519Z,8.80
2022-11-05T09:44:20.084Z,8.80
2022-11-05T09:46:58.165Z,8.90
2022-11-05T09:49:51.002Z,8.90
2022-11-05T09:52:23.596Z,8.90
2022-11-05T09:54:51.567Z,9.00
2022-11-05T09:57:27.663Z,9.00
2022-11-05T10:00:02.786Z,9.00
2022-11-05T10:03:00.152Z,9.00
2022-11-05T10:05:28.784Z,9.10
2022-11-05T10:08:29.654Z,9.10
2022-11-05T10:11:24.652Z,9.10
2022-11-05T10:14:01.110Z,9.20
2022-11-05T10:16:34.512Z,9.20
2022-11-05T10:19:24.947Z,9.20
2022-11-05T10:22:11.119Z,9.30
2022-11-05T10:24:48.245Z,9.30
2022-11-05T10:27:37.805Z,9.30
2022-11-05T10:30:05.740Z,9.40
2022-11-05T10:32:40.748Z,9.40
2022-11-05T10:35:14.586Z,9.40
2022-11-05T10:37:41.714Z,9.50
2022-11-05T10:40:32.594Z,9.50
2022-11-05T10:43:13.789Z,9.50
2022-11-05T10:45:56.127Z,9.40
2022-11-05T10:48:44.386Z,9.40
2022-11-05T10:51:12.811Z,9.40
2022-11-05T10:53:48.676Z,9.40
2022-11-05T10:56:32.534Z,9.40
2022-11-05T10:59:06.735Z,9.40
2022-11-05T11:01:36.979Z,9.40
2022-11-05T11:04:11.903Z,9.50
2022-11-05T11:06:53.110Z,9.40
2022-11-05T11:09:35.814Z,9.50
2022-11-05T11:12:07.420Z,9.50
2022-11-05T11:14:35.269Z,9.50
2022-11-05T11:17:27.734Z,9.50
2022-11-05T11:20:27.096Z,9.50
2022-11-05T11:23:23.536Z,9.50
2022-11-05T11:26:02.474Z,9.60
2022-11-05T11:28:46.023Z,9.60
2022-11-05T11:31:37.073Z,9.60
2022-11-05T11:34:19.907Z,9.70
2022-11-05T11:36:51.296Z,9.70
2022-11-05T11:39:25.964Z,9.80
2022-11-05T11:41:57.728Z,9.80
2022-11-05T11:44:30.842Z,9.90
2022-11-05T11:47:04.822Z,10.00
2022-11-05T11:49:54.477Z,10.10
2022-11-05T11:52:36.496Z,10.30
2022-11-05T11:55:12.752Z,10.40
2022-11-05T11:57:45.783Z,10.60
2022-11-05T12:00:14.190Z,10.60
2022-11-05T12:02:58.804Z,10.70
2022-11-05T12:05:46.614Z,10.80
2022-11-05T12:08:47.048Z,10.80
2022-11-05T12:11:45.026Z,10.90
2022-11-05T12:14:35.151Z,10.90
2022-11-05T12:17:40.135Z,10.90
2022-11-05T12:20:53.993Z,10.90
2022-11-05T12:23:52.093Z,10.80
2022-11-05T12:26:37.974Z,10.80
2022-11-05T12:29:40.372Z,10.80
2022-11-05T12:32:28.251Z,10.70
2022-11-05T12:34:58.102Z,10.80
2022-11-05T12:38:07.159Z,10.80
2022-11-05T12:40:52.136Z,10.90
2022-11-05T12:43:45.610Z,10.90
2022-11-05T12:46:53.663Z,10.90
2022-11-05T12:49:36.122Z,11.00
2022-11-05T12:52:42.128Z,11.10
2022-11-05T12:55:18.765Z,11.20
2022-11-05T12:57:49.698Z,11.30
2022-11-05T13:00:27.070Z,11.20
2022-11-05T13:03:24.541Z,11.30
2022-11-05T13:06:23.433Z,11.30
2022-11-05T13:09:19.740Z,11.40
2022-11-05T13:12:10.530Z,11.30
2022-11-05T13:14:52.750Z,11.30
2022-11-05T13:17:46.358Z,11.20
2022-11-05T13:20:20.886Z,11.20
2022-11-05T13:23:03.964Z,11.10
2022-11-05T13:25:40.626Z,11.10
2022-11-05T13:28:46.839Z,11.10
2022-11-05T13:31:20.658Z,11.10
2022-11-05T13:33:53.043Z,11.10
2022-11-05T13:36:52.929Z,11.20
2022-11-05T13:39:44.261Z,11.20
2022-11-05T13:42:35.466Z,11.30
2022-11-05T13:45:42.503Z,11.40
2022-11-05T13:48:32.090Z,11.50
2022-11-05T13:51:22.467Z,11.50
2022-11-05T13:54:20.179Z,11.60
2022-11-05T13:57:15.509Z,11.60
2022-11-05T13:59:59.338Z,11.70
2022-11-05T14:02:43.715Z,11.80
2022-11-05T14:05:39.614Z,11.90
2022-11-05T14:08:16.539Z,12.00
2022-11-05T14:11:01.949Z,12.00
2022-11-05T14:13:40.205Z,12.10
2022-11-05T14:16:16.489Z,12.10
2022-11-05T14:18:56.236Z,12.10
2022-11-05T14:21:26.197Z,12.10
2022-11-05T14:23:55.377Z,12.10
2022-11-05T14:26:28.511Z,12.10
2022-11-05T14:29:04.727Z,12.20
2022-11-05T14:32:08.160Z,12.30
2022-11-05T14:35:15.279Z,12.20
2022-11-05T14:37:54.849Z,12.30
2022-11-05T14:40:21.742Z,12.20
2022-11-05T14:42:56.542Z,12.30
2022-11-05T14:45:34.533Z,12.20
2022-11-05T14:48:07.257Z,12.20
2022-11-05T14:50:42.771Z,12.20
2022-11-05T14:53:35.608Z,12.10
2022-11-05T14:56:07.005Z,12.10
2022-11-05T14:58:40.659Z,12.10
2022-11-05T15:01:13.773Z,12.00
2022-11-05T15:03:45.869Z,12.00
2022-11-05T15:06:34.465Z,11.90
2022-11-05T15:09:19.316Z,11.80
2022-11-05T15:11:56.544Z,11.70
2022-11-05T15:14:33.866Z,11.60
2022-11-05T15:17:17.465Z,11.40
2022-11-05T15:19:46.974Z,11.30
2022-11-05T15:22:41.581Z,11.30
2022-11-05T15:25:53.425Z,11.20
2022-11-05T15:28:43.290Z,11.10
2022-11-05T15:31:13.245Z,11.00
2022-11-05T15:33:43.642Z,10.90
2022-11-05T15:36:30.721Z,10.90
2022-11-05T15:41:47.178Z,10.80
2022-11-05T15:44:26.534Z,10.80
2022-11-05T15:47:26.614Z,10.70
2022-11-05T15:50:01.315Z,10.70
2022-11-05T15:52:36.475Z,10.60
2022-11-05T15:55:12.873Z,10.50
2022-11-05T15:58:18.169Z,10.50
2022-11-05T16:00:49.042Z,10.40
2022-11-05T16:03:33.777Z,10.30
2022-11-05T16:06:02.436Z,10.20
2022-11-05T16:08:31.604Z,10.20
2022-11-05T16:11:00.748Z,10.10
2022-11-05T16:13:36.713Z,10.10
2022-11-05T16:16:33.456Z,10.00
2022-11-05T16:19:01.263Z,9.90
2022-11-05T16:21:29.507Z,9.80
2022-11-05T16:24:00.085Z,9.80
2022-11-05T16:27:01.961Z,9.80
2022-11-05T16:29:38.494Z,9.60
2022-11-05T16:32:31.438Z,9.60
2022-11-05T16:35:06.094Z,9.50
2022-11-05T16:37:41.081Z,9.50
2022-11-05T16:40:18.464Z,9.40
2022-11-05T16:42:51.444Z,9.30
2022-11-05T16:45:24.875Z,9.30
2022-11-05T16:47:52.201Z,9.20
2022-11-05T16:50:29.946Z,9.20
2022-11-05T16:52:57.022Z,9.20
2022-11-05T16:55:24.035Z,9.10
2022-11-05T16:57:55.753Z,9.00
2022-11-05T17:00:24.057Z,9.00
2022-11-05T17:02:51.900Z,8.90
2022-11-05T17:05:29.315Z,8.90
2022-11-05T17:07:57.177Z,8.90
2022-11-05T17:10:26.160Z,8.80
2022-11-05T17:12:53.857Z,8.80
2022-11-05T17:15:29.532Z,8.70
2022-11-05T17:17:58.560Z,8.70
2022-11-05T17:20:46.808Z,8.60
2022-11-05T17:23:18.581Z,8.60
2022-11-05T17:25:53.401Z,8.50
2022-11-05T17:28:21.602Z,8.50
2022-11-05T17:30:52.274Z,8.40
2022-11-05T17:33:22.747Z,8.40
2022-11-05T17:35:50.698Z,8.30
2022-11-05T17:38:18.265Z,8.20
2022-11-05T17:40:45.543Z,8.20
2022-11-05T17:43:12.833Z,8.20
2022-11-05T17:45:52.309Z,8.20
2022-11-05T17:48:21.306Z,8.10
2022-11-05T17:50:50.512Z,8.10
2022-11-05T17:53:19.289Z,8.10
2022-11-05T17:55:47.839Z,7.90
2022-11-05T17:58:15.656Z,7.90
2022-11-05T18:00:44.446Z,7.90
2022-11-05T18:03:12.840Z,7.80
2022-11-05T18:05:41.980Z,7.80
2022-11-05T18:08:09.536Z,7.80
2022-11-05T18:10:38.762Z,7.80
2022-11-05T18:13:06.346Z,7.80
2022-11-05T18:15:35.548Z,7.70
2022-11-05T18:18:02.739Z,7.70
2022-11-05T18:20:29.839Z,7.70
2022-11-05T18:22:56.867Z,7.70
2022-11-05T18:25:23.897Z,7.70
2022-11-05T18:27:50.943Z,7.70
2022-11-05T18:30:17.980Z,7.70
2022-11-05T18:32:45.469Z,7.60
2022-11-05T18:35:13.506Z,7.60
2022-11-05T18:37:41.659Z,7.60
2022-11-05T18:40:09.563Z,7.60
2022-11-05T18:42:37.020Z,7.60
2022-11-05T18:45:06.668Z,7.50
2022-11-05T18:47:34.307Z,7.50
2022-11-05T18:50:02.091Z,7.40
2022-11-05T18:52:31.601Z,7.40
2022-11-05T18:54:59.823Z,7.50
2022-11-05T18:57:27.782Z,7.50
2022-11-05T18:59:54.914Z,7.50
2022-11-05T19:02:22.067Z,7.50
2022-11-05T19:05:13.835Z,7.50
2022-11-05T19:07:38.405Z,7.40
2022-11-05T19:10:06.796Z,7.40
2022-11-05T19:12:33.847Z,7.40
2022-11-05T19:15:02.717Z,7.40
2022-11-05T19:17:32.945Z,7.30
2022-11-05T19:20:00.428Z,7.30
2022-11-05T19:22:27.890Z,7.30
2022-11-05T19:24:54.872Z,7.30
2022-11-05T19:27:22.006Z,7.30
2022-11-05T19:29:49.159Z,7.30
2022-11-05T19:32:16.233Z,7.30
2022-11-05T19:34:43.265Z,7.30
2022-11-05T19:37:10.808Z,7.20
2022-11-05T19:39:38.703Z,7.20
2022-11-05T19:42:06.811Z,7.10
2022-11-05T19:44:33.831Z,7.10
2022-11-05T19:47:01.064Z,7.10
2022-11-05T19:49:28.547Z,7.00
2022-11-05T19:51:55.715Z,7.00
2022-11-05T19:54:23.019Z,6.90
2022-11-05T19:56:51.768Z,6.90
2022-11-05T19:59:19.061Z,6.80
2022-11-05T20:01:46.463Z,6.90
2022-11-05T20:04:13.746Z,6.80
2022-11-05T20:06:40.955Z,6.80
2022-11-05T20:09:22.681Z,6.80
2022-11-05T20:11:54.514Z,6.80
2022-11-05T20:14:23.714Z,6.70
2022-11-05T20:16:51.286Z,6.70
2022-11-05T20:19:21.361Z,6.70
2022-11-05T20:21:48.963Z,6.70
2022-11-05T20:24:24.319Z,6.60
2022-11-05T20:26:57.048Z,6.60
2022-11-05T20:29:30.483Z,6.60
2022-11-05T20:32:03.698Z,6.70
2022-11-05T20:34:32.531Z,6.60
2022-11-05T20:37:00.158Z,6.60
2022-11-05T20:39:27.583Z,6.50
2022-11-05T20:41:56.448Z,6.60
2022-11-05T20:44:23.634Z,6.50
2022-11-05T20:46:50.707Z,6.50
2022-11-05T20:49:22.560Z,6.50
2022-11-05T20:51:52.261Z,6.40
2022-11-05T20:54:19.253Z,6.40
2022-11-05T20:56:46.470Z,6.30
2022-11-05T20:59:13.510Z,6.30
2022-11-05T21:01:40.673Z,6.30
2022-11-05T21:04:07.952Z,6.30
2022-11-05T21:06:35.924Z,6.20
2022-11-05T21:09:04.420Z,6.20
2022-11-05T21:11:51.512Z,6.20
2022-11-05T21:14:18.690Z,6.10
2022-11-05T21:16:45.778Z,6.10
2022-11-05T21:19:12.841Z,6.10
2022-11-05T21:21:41.243Z,6.10
2022-11-05T21:24:08.691Z,6.00
2022-11-05T21:26:35.695Z,6.10
2022-11-05T21:29:02.759Z,6.10
2022-11-05T21:31:29.791Z,6.10
2022-11-05T21:33:56.885Z,5.90
2022-11-05T21:36:24.187Z,6.00
2022-11-05T21:38:51.250Z,5.90
2022-11-05T21:41:18.298Z,5.90
2022-11-05T21:43:45.382Z,5.80
2022-11-05T21:46:13.862Z,5.80
2022-11-05T21:48:40.998Z,5.70
2022-11-05T21:51:28.900Z,5.70
2022-11-05T21:54:14.737Z,5.70
2022-11-05T21:57:04.977Z,5.70
2022-11-05T21:59:48.987Z,5.70
2022-11-05T22:02:20.769Z,5.70
2022-11-05T22:04:52.242Z,5.70
2022-11-05T22:07:27.494Z,5.70
2022-11-05T22:09:54.945Z,5.70
2022-11-05T22:12:24.453Z,5.70
2022-11-05T22:14:52.568Z,5.70
2022-11-05T22:17:20.642Z,5.70
2022-11-05T22:19:48.006Z,5.70
2022-11-05T22:22:15.788Z,5.80
2022-11-05T22:24:43.879Z,5.70
2022-11-05T22:27:18.075Z,5.80
2022-11-05T22:29:46.255Z,5.80
2022-11-05T22:32:14.185Z,5.80
2022-11-05T22:34:41.632Z,5.80
2022-11-05T22:37:10.480Z,5.80
2022-11-05T22:39:37.586Z,5.90
2022-11-05T22:42:08.476Z,5.80
2022-11-05T22:44:36.822Z,5.80
2022-11-05T22:47:04.136Z,5.80
2022-11-05T22:49:32.393Z,5.80
2022-11-05T22:51:59.453Z,5.80
2022-11-05T22:54:26.530Z,5.80
2022-11-05T22:56:53.843Z,5.80
2022-11-05T22:59:20.942Z,5.80
2022-11-05T23:01:48.423Z,5.80
2022-11-05T23:04:16.278Z,5.90
2022-11-05T23:07:02.338Z,5.90
2022-11-05T23:09:53.381Z,5.90
2022-11-05T23:12:33.549Z,5.90
2022-11-05T23:15:05.674Z,5.90
2022-11-05T23:17:51.504Z,5.90
2022-11-05T23:20:41.299Z,5.90
2022-11-05T23:23:31.681Z,5.90
2022-11-05T23:26:20.901Z,5.90
2022-11-05T23:28:47.948Z,5.90
2022-11-05T23:31:33.319Z,5.90
2022-11-05T23:34:00.317Z,5.90
2022-11-05T23:36:45.866Z,5.80
2022-11-05T23:39:12.927Z,5.90
2022-11-05T23:41:58.313Z,6.00
2022-11-05T23:44:43.624Z,5.90
2022-11-05T23:47:29.038Z,5.90
2022-11-05T23:49:56.056Z,5.90
2022-11-05T23:52:23.071Z,5.90
2022-11-05T23:54:50.122Z,5.90
2022-11-05T23:57:17.100Z,5.80
2022-11-05T23:59:44.123Z,5.90
